sensor_id;sensor_type;location;lat;lon;timestamp;temperature;humidity
7366;DHT22;3723;52.220;8.792;2024-02-23T00:00:48;8.90;99.90
7366;DHT22;3723;52.220;8.792;2024-02-23T00:03:15;8.90;99.90
7366;DHT22;3723;52.220;8.792;2024-02-23T00:05:42;8.90;99.90
7366;DHT22;3723;52.220;8.792;2024-02-23T00:08:13;8.80;99.90
7366;DHT22;3723;52.220;8.792;2024-02-23T00:10:40;8.80;99.90
7366;DHT22;3723;52.220;8.792;2024-02-23T00:13:07;8.70;99.90
7366;DHT22;3723;52.220;8.792;2024-02-23T00:15:34;8.60;99.90
7366;DHT22;3723;52.220;8.792;2024-02-23T00:18:01;8.70;99.90
7366;DHT22;3723;52.220;8.792;2024-02-23T00:20:29;8.60;99.90
7366;DHT22;3723;52.220;8.792;2024-02-23T00:22:56;8.60;99.90
7366;DHT22;3723;52.220;8.792;2024-02-23T00:25:26;8.60;99.90
7366;DHT22;3723;52.220;8.792;2024-02-23T00:27:52;8.60;99.90
7366;DHT22;3723;52.220;8.792;2024-02-23T00:30:20;8.60;99.90
7366;DHT22;3723;52.220;8.792;2024-02-23T00:32:47;8.50;99.90
7366;DHT22;3723;52.220;8.792;2024-02-23T00:35:14;8.50;99.90
7366;DHT22;3723;52.220;8.792;2024-02-23T00:37:41;8.50;99.90
7366;DHT22;3723;52.220;8.792;2024-02-23T00:40:09;8.40;99.90
7366;DHT22;3723;52.220;8.792;2024-02-23T00:42:38;8.30;99.90
7366;DHT22;3723;52.220;8.792;2024-02-23T00:45:06;7.90;99.90
7366;DHT22;3723;52.220;8.792;2024-02-23T00:47:33;7.50;99.90
7366;DHT22;3723;52.220;8.792;2024-02-23T00:50:01;7.10;99.90
7366;DHT22;3723;52.220;8.792;2024-02-23T00:52:27;6.70;99.90
7366;DHT22;3723;52.220;8.792;2024-02-23T00:54:54;6.50;99.90
7366;DHT22;3723;52.220;8.792;2024-02-23T00:57:23;6.40;99.90
7366;DHT22;3723;52.220;8.792;2024-02-23T00:59:57;6.50;99.90
7366;DHT22;3723;52.220;8.792;2024-02-23T01:02:24;6.40;99.90
7366;DHT22;3723;52.220;8.792;2024-02-23T01:04:51;6.30;99.90
7366;DHT22;3723;52.220;8.792;2024-02-23T01:07:22;6.20;1.00
7366;DHT22;3723;52.220;8.792;2024-02-23T01:09:49;6.10;1.00
7366;DHT22;3723;52.220;8.792;2024-02-23T01:12:16;5.90;1.00
7366;DHT22;3723;52.220;8.792;2024-02-23T01:14:43;5.90;1.00
7366;DHT22;3723;52.220;8.792;2024-02-23T01:17:11;5.70;1.00
7366;DHT22;3723;52.220;8.792;2024-02-23T01:19:38;5.50;1.00
7366;DHT22;3723;52.220;8.792;2024-02-23T01:22:05;5.40;1.00
7366;DHT22;3723;52.220;8.792;2024-02-23T01:24:32;5.30;1.00
7366;DHT22;3723;52.220;8.792;2024-02-23T01:26:59;5.10;1.00
7366;DHT22;3723;52.220;8.792;2024-02-23T01:29:26;5.10;1.00
7366;DHT22;3723;52.220;8.792;2024-02-23T01:31:53;5.00;1.00
7366;DHT22;3723;52.220;8.792;2024-02-23T01:34:23;4.90;1.00
7366;DHT22;3723;52.220;8.792;2024-02-23T01:36:50;4.80;1.00
7366;DHT22;3723;52.220;8.792;2024-02-23T01:39:17;4.80;1.00
7366;DHT22;3723;52.220;8.792;2024-02-23T01:41:43;4.70;20.90
7366;DHT22;3723;52.220;8.792;2024-02-23T01:44:10;4.70;27.40
7366;DHT22;3723;52.220;8.792;2024-02-23T01:46:38;4.70;99.90
7366;DHT22;3723;52.220;8.792;2024-02-23T01:49:06;4.60;93.00
7366;DHT22;3723;52.220;8.792;2024-02-23T01:51:36;4.70;99.90
7366;DHT22;3723;52.220;8.792;2024-02-23T01:54:03;4.70;99.90
7366;DHT22;3723;52.220;8.792;2024-02-23T01:56:31;4.70;99.90
7366;DHT22;3723;52.220;8.792;2024-02-23T01:58:59;4.60;99.90
7366;DHT22;3723;52.220;8.792;2024-02-23T02:01:28;4.60;99.90
7366;DHT22;3723;52.220;8.792;2024-02-23T02:03:55;4.60;99.90
7366;DHT22;3723;52.220;8.792;2024-02-23T02:06:23;4.50;99.90
7366;DHT22;3723;52.220;8.792;2024-02-23T02:08:52;4.50;99.90
7366;DHT22;3723;52.220;8.792;2024-02-23T02:11:19;4.50;99.90
7366;DHT22;3723;52.220;8.792;2024-02-23T02:13:46;4.50;99.90
7366;DHT22;3723;52.220;8.792;2024-02-23T02:16:13;4.60;99.90
7366;DHT22;3723;52.220;8.792;2024-02-23T02:18:39;4.50;99.90
7366;DHT22;3723;52.220;8.792;2024-02-23T02:21:07;4.50;99.90
7366;DHT22;3723;52.220;8.792;2024-02-23T02:23:34;4.40;99.90
7366;DHT22;3723;52.220;8.792;2024-02-23T02:26:04;4.40;99.90
7366;DHT22;3723;52.220;8.792;2024-02-23T02:28:31;4.40;99.90
7366;DHT22;3723;52.220;8.792;2024-02-23T02:30:59;4.40;99.90
7366;DHT22;3723;52.220;8.792;2024-02-23T02:33:26;4.30;99.90
7366;DHT22;3723;52.220;8.792;2024-02-23T02:35:52;4.40;99.90
7366;DHT22;3723;52.220;8.792;2024-02-23T02:38:19;4.40;99.90
7366;DHT22;3723;52.220;8.792;2024-02-23T02:40:46;4.40;99.90
7366;DHT22;3723;52.220;8.792;2024-02-23T02:43:14;4.60;99.90
7366;DHT22;3723;52.220;8.792;2024-02-23T02:45:41;4.50;99.90
7366;DHT22;3723;52.220;8.792;2024-02-23T02:48:09;4.50;99.90
7366;DHT22;3723;52.220;8.792;2024-02-23T02:50:36;4.60;99.90
7366;DHT22;3723;52.220;8.792;2024-02-23T02:53:03;4.60;99.90
7366;DHT22;3723;52.220;8.792;2024-02-23T02:55:30;4.60;99.90
7366;DHT22;3723;52.220;8.792;2024-02-23T02:57:57;4.60;99.90
7366;DHT22;3723;52.220;8.792;2024-02-23T03:00:25;4.70;99.90
7366;DHT22;3723;52.220;8.792;2024-02-23T03:02:52;4.80;99.90
7366;DHT22;3723;52.220;8.792;2024-02-23T03:05:19;4.80;92.90
7366;DHT22;3723;52.220;8.792;2024-02-23T03:07:46;4.90;21.90
7366;DHT22;3723;52.220;8.792;2024-02-23T03:10:13;4.90;1.00
7366;DHT22;3723;52.220;8.792;2024-02-23T03:12:40;5.00;1.00
7366;DHT22;3723;52.220;8.792;2024-02-23T03:15:07;5.00;1.00
7366;DHT22;3723;52.220;8.792;2024-02-23T03:17:36;5.00;1.00
7366;DHT22;3723;52.220;8.792;2024-02-23T03:20:04;4.90;1.00
7366;DHT22;3723;52.220;8.792;2024-02-23T03:22:34;4.90;1.00
7366;DHT22;3723;52.220;8.792;2024-02-23T03:25:01;4.90;1.00
7366;DHT22;3723;52.220;8.792;2024-02-23T03:27:37;5.10;1.00
7366;DHT22;3723;52.220;8.792;2024-02-23T03:30:05;5.20;1.00
7366;DHT22;3723;52.220;8.792;2024-02-23T03:32:33;5.20;1.00
7366;DHT22;3723;52.220;8.792;2024-02-23T03:35:05;5.20;1.00
7366;DHT22;3723;52.220;8.792;2024-02-23T03:37:32;5.30;1.00
7366;DHT22;3723;52.220;8.792;2024-02-23T03:39:59;5.30;1.00
7366;DHT22;3723;52.220;8.792;2024-02-23T03:42:26;5.40;1.00
7366;DHT22;3723;52.220;8.792;2024-02-23T03:44:53;5.50;1.00
7366;DHT22;3723;52.220;8.792;2024-02-23T03:47:20;5.60;1.00
7366;DHT22;3723;52.220;8.792;2024-02-23T03:49:46;5.60;1.00
7366;DHT22;3723;52.220;8.792;2024-02-23T03:52:15;5.60;1.00
7366;DHT22;3723;52.220;8.792;2024-02-23T03:54:42;5.70;1.00
7366;DHT22;3723;52.220;8.792;2024-02-23T03:57:09;5.60;1.00
7366;DHT22;3723;52.220;8.792;2024-02-23T03:59:37;5.70;1.00
7366;DHT22;3723;52.220;8.792;2024-02-23T04:02:04;5.70;1.00
7366;DHT22;3723;52.220;8.792;2024-02-23T04:04:31;5.70;1.00
7366;DHT22;3723;52.220;8.792;2024-02-23T04:06:58;5.70;1.00
7366;DHT22;3723;52.220;8.792;2024-02-23T04:09:26;5.80;1.00
7366;DHT22;3723;52.220;8.792;2024-02-23T04:11:53;5.80;1.00
7366;DHT22;3723;52.220;8.792;2024-02-23T04:14:20;5.70;1.00
7366;DHT22;3723;52.220;8.792;2024-02-23T04:16:47;5.70;1.00
7366;DHT22;3723;52.220;8.792;2024-02-23T04:19:14;5.70;1.00
7366;DHT22;3723;52.220;8.792;2024-02-23T04:21:41;5.70;1.00
7366;DHT22;3723;52.220;8.792;2024-02-23T04:24:08;5.70;1.00
7366;DHT22;3723;52.220;8.792;2024-02-23T04:26:36;5.60;1.00
7366;DHT22;3723;52.220;8.792;2024-02-23T04:29:03;5.50;1.00
7366;DHT22;3723;52.220;8.792;2024-02-23T04:31:30;5.50;1.00
7366;DHT22;3723;52.220;8.792;2024-02-23T04:33:57;5.50;1.00
7366;DHT22;3723;52.220;8.792;2024-02-23T04:36:23;5.50;1.00
7366;DHT22;3723;52.220;8.792;2024-02-23T04:38:50;5.40;1.00
7366;DHT22;3723;52.220;8.792;2024-02-23T04:41:19;5.30;1.00
7366;DHT22;3723;52.220;8.792;2024-02-23T04:43:49;5.30;1.00
7366;DHT22;3723;52.220;8.792;2024-02-23T04:46:16;5.30;1.00
7366;DHT22;3723;52.220;8.792;2024-02-23T04:48:43;5.20;1.00
7366;DHT22;3723;52.220;8.792;2024-02-23T04:51:10;5.30;1.00
7366;DHT22;3723;52.220;8.792;2024-02-23T04:53:37;5.20;1.00
7366;DHT22;3723;52.220;8.792;2024-02-23T04:56:04;5.30;1.00
7366;DHT22;3723;52.220;8.792;2024-02-23T04:58:31;5.30;1.00
7366;DHT22;3723;52.220;8.792;2024-02-23T05:01:00;5.30;99.90
7366;DHT22;3723;52.220;8.792;2024-02-23T05:03:28;5.30;1.00
7366;DHT22;3723;52.220;8.792;2024-02-23T05:05:55;5.30;1.00
7366;DHT22;3723;52.220;8.792;2024-02-23T05:08:22;5.30;1.00
7366;DHT22;3723;52.220;8.792;2024-02-23T05:10:49;5.20;1.00
7366;DHT22;3723;52.220;8.792;2024-02-23T05:13:16;5.10;1.00
7366;DHT22;3723;52.220;8.792;2024-02-23T05:15:43;5.00;99.90
7366;DHT22;3723;52.220;8.792;2024-02-23T05:18:11;5.10;1.00
7366;DHT22;3723;52.220;8.792;2024-02-23T05:20:39;5.10;99.90
7366;DHT22;3723;52.220;8.792;2024-02-23T05:23:06;5.20;1.00
7366;DHT22;3723;52.220;8.792;2024-02-23T05:25:34;5.30;1.00
7366;DHT22;3723;52.220;8.792;2024-02-23T05:28:01;5.40;1.00
7366;DHT22;3723;52.220;8.792;2024-02-23T05:30:28;5.40;99.90
7366;DHT22;3723;52.220;8.792;2024-02-23T05:32:56;5.50;99.90
7366;DHT22;3723;52.220;8.792;2024-02-23T05:35:25;5.50;99.90
7366;DHT22;3723;52.220;8.792;2024-02-23T05:37:52;5.50;99.90
7366;DHT22;3723;52.220;8.792;2024-02-23T05:40:19;5.40;99.90
7366;DHT22;3723;52.220;8.792;2024-02-23T05:42:45;5.30;99.90
7366;DHT22;3723;52.220;8.792;2024-02-23T05:45:12;5.20;99.90
7366;DHT22;3723;52.220;8.792;2024-02-23T05:47:39;5.20;99.90
7366;DHT22;3723;52.220;8.792;2024-02-23T05:50:08;5.10;99.90
7366;DHT22;3723;52.220;8.792;2024-02-23T05:52:36;5.10;99.90
7366;DHT22;3723;52.220;8.792;2024-02-23T05:55:05;5.10;99.90
7366;DHT22;3723;52.220;8.792;2024-02-23T05:57:31;5.10;99.90
7366;DHT22;3723;52.220;8.792;2024-02-23T05:59:58;5.10;99.90
7366;DHT22;3723;52.220;8.792;2024-02-23T06:02:25;5.20;1.00
7366;DHT22;3723;52.220;8.792;2024-02-23T06:04:52;5.10;99.90
7366;DHT22;3723;52.220;8.792;2024-02-23T06:07:19;5.20;99.90
7366;DHT22;3723;52.220;8.792;2024-02-23T06:09:54;5.20;99.90
7366;DHT22;3723;52.220;8.792;2024-02-23T06:12:21;5.30;99.90
7366;DHT22;3723;52.220;8.792;2024-02-23T06:14:48;5.30;99.90
7366;DHT22;3723;52.220;8.792;2024-02-23T06:17:14;5.40;99.90
7366;DHT22;3723;52.220;8.792;2024-02-23T06:19:41;5.50;99.90
7366;DHT22;3723;52.220;8.792;2024-02-23T06:22:08;5.50;99.90
7366;DHT22;3723;52.220;8.792;2024-02-23T06:24:39;5.40;99.90
7366;DHT22;3723;52.220;8.792;2024-02-23T06:27:08;5.40;99.90
7366;DHT22;3723;52.220;8.792;2024-02-23T06:29:35;5.40;99.90
7366;DHT22;3723;52.220;8.792;2024-02-23T06:32:03;5.40;99.90
7366;DHT22;3723;52.220;8.792;2024-02-23T06:34:30;5.30;99.90
7366;DHT22;3723;52.220;8.792;2024-02-23T06:36:57;5.30;99.90
7366;DHT22;3723;52.220;8.792;2024-02-23T06:39:24;5.40;99.90
7366;DHT22;3723;52.220;8.792;2024-02-23T06:41:51;5.40;99.90
7366;DHT22;3723;52.220;8.792;2024-02-23T06:44:20;5.40;99.90
7366;DHT22;3723;52.220;8.792;2024-02-23T06:46:47;5.60;99.90
7366;DHT22;3723;52.220;8.792;2024-02-23T06:49:13;5.60;99.90
7366;DHT22;3723;52.220;8.792;2024-02-23T06:51:40;5.60;99.90
7366;DHT22;3723;52.220;8.792;2024-02-23T06:54:08;5.70;99.90
7366;DHT22;3723;52.220;8.792;2024-02-23T06:56:34;5.70;99.90
7366;DHT22;3723;52.220;8.792;2024-02-23T06:59:02;5.80;99.90
7366;DHT22;3723;52.220;8.792;2024-02-23T07:01:30;5.90;99.90
7366;DHT22;3723;52.220;8.792;2024-02-23T07:03:59;5.90;99.90
7366;DHT22;3723;52.220;8.792;2024-02-23T07:06:27;6.10;99.90
7366;DHT22;3723;52.220;8.792;2024-02-23T07:08:59;6.10;99.90
7366;DHT22;3723;52.220;8.792;2024-02-23T07:11:25;6.20;99.90
7366;DHT22;3723;52.220;8.792;2024-02-23T07:13:59;6.30;99.90
7366;DHT22;3723;52.220;8.792;2024-02-23T07:16:27;6.30;99.90
7366;DHT22;3723;52.220;8.792;2024-02-23T07:18:55;6.30;99.90
7366;DHT22;3723;52.220;8.792;2024-02-23T07:21:22;6.40;99.90
7366;DHT22;3723;52.220;8.792;2024-02-23T07:23:49;6.60;99.90
7366;DHT22;3723;52.220;8.792;2024-02-23T07:26:16;6.80;99.90
7366;DHT22;3723;52.220;8.792;2024-02-23T07:28:45;6.90;99.90
7366;DHT22;3723;52.220;8.792;2024-02-23T07:31:12;7.00;99.90
7366;DHT22;3723;52.220;8.792;2024-02-23T07:33:39;7.00;99.90
7366;DHT22;3723;52.220;8.792;2024-02-23T07:36:07;7.00;99.90
7366;DHT22;3723;52.220;8.792;2024-02-23T07:38:34;7.10;99.90
7366;DHT22;3723;52.220;8.792;2024-02-23T07:41:01;7.30;99.90
7366;DHT22;3723;52.220;8.792;2024-02-23T07:43:28;7.60;99.90
7366;DHT22;3723;52.220;8.792;2024-02-23T07:45:55;8.10;99.90
7366;DHT22;3723;52.220;8.792;2024-02-23T07:48:22;8.40;99.90
7366;DHT22;3723;52.220;8.792;2024-02-23T07:50:48;8.80;99.90
7366;DHT22;3723;52.220;8.792;2024-02-23T07:53:17;9.20;99.90
7366;DHT22;3723;52.220;8.792;2024-02-23T07:55:44;9.40;99.90
7366;DHT22;3723;52.220;8.792;2024-02-23T07:58:11;9.60;99.90
7366;DHT22;3723;52.220;8.792;2024-02-23T08:00:37;9.80;99.90
7366;DHT22;3723;52.220;8.792;2024-02-23T08:03:05;9.80;99.90
7366;DHT22;3723;52.220;8.792;2024-02-23T08:05:33;9.80;99.90
7366;DHT22;3723;52.220;8.792;2024-02-23T08:08:02;9.70;99.90
7366;DHT22;3723;52.220;8.792;2024-02-23T08:10:31;9.60;99.90
7366;DHT22;3723;52.220;8.792;2024-02-23T08:12:58;9.70;99.90
7366;DHT22;3723;52.220;8.792;2024-02-23T08:15:25;9.70;99.90
7366;DHT22;3723;52.220;8.792;2024-02-23T08:17:52;9.70;99.90
7366;DHT22;3723;52.220;8.792;2024-02-23T08:20:19;9.80;99.90
7366;DHT22;3723;52.220;8.792;2024-02-23T08:22:46;10.00;99.90
7366;DHT22;3723;52.220;8.792;2024-02-23T08:25:13;10.10;99.90
7366;DHT22;3723;52.220;8.792;2024-02-23T08:27:42;10.20;99.90
7366;DHT22;3723;52.220;8.792;2024-02-23T08:30:09;10.30;99.90
7366;DHT22;3723;52.220;8.792;2024-02-23T08:32:37;10.30;99.90
7366;DHT22;3723;52.220;8.792;2024-02-23T08:35:04;10.30;99.90
7366;DHT22;3723;52.220;8.792;2024-02-23T08:37:31;10.30;99.90
7366;DHT22;3723;52.220;8.792;2024-02-23T08:39:58;10.20;99.90
7366;DHT22;3723;52.220;8.792;2024-02-23T08:42:26;10.20;99.90
7366;DHT22;3723;52.220;8.792;2024-02-23T08:44:54;10.40;99.90
7366;DHT22;3723;52.220;8.792;2024-02-23T08:47:21;10.50;99.90
7366;DHT22;3723;52.220;8.792;2024-02-23T08:49:48;10.60;99.90
7366;DHT22;3723;52.220;8.792;2024-02-23T08:52:15;10.70;99.90
7366;DHT22;3723;52.220;8.792;2024-02-23T08:54:41;10.80;99.90
7366;DHT22;3723;52.220;8.792;2024-02-23T08:57:08;10.90;99.90
7366;DHT22;3723;52.220;8.792;2024-02-23T08:59:35;11.00;99.90
7366;DHT22;3723;52.220;8.792;2024-02-23T09:02:04;11.10;99.90
7366;DHT22;3723;52.220;8.792;2024-02-23T09:04:31;11.40;99.90
7366;DHT22;3723;52.220;8.792;2024-02-23T09:06:58;11.60;99.90
7366;DHT22;3723;52.220;8.792;2024-02-23T09:09:25;11.80;99.90
7366;DHT22;3723;52.220;8.792;2024-02-23T09:11:51;11.90;99.90
7366;DHT22;3723;52.220;8.792;2024-02-23T09:14:18;11.40;99.90
7366;DHT22;3723;52.220;8.792;2024-02-23T09:16:45;11.00;99.90
7366;DHT22;3723;52.220;8.792;2024-02-23T09:19:17;10.70;99.90
7366;DHT22;3723;52.220;8.792;2024-02-23T09:21:44;10.60;99.90
7366;DHT22;3723;52.220;8.792;2024-02-23T09:24:11;10.30;99.90
7366;DHT22;3723;52.220;8.792;2024-02-23T09:26:38;9.90;99.90
7366;DHT22;3723;52.220;8.792;2024-02-23T09:29:05;9.70;99.90
7366;DHT22;3723;52.220;8.792;2024-02-23T09:31:32;9.40;99.90
7366;DHT22;3723;52.220;8.792;2024-02-23T09:33:59;9.20;99.90
7366;DHT22;3723;52.220;8.792;2024-02-23T09:36:27;8.90;99.90
7366;DHT22;3723;52.220;8.792;2024-02-23T09:38:55;8.70;99.90
7366;DHT22;3723;52.220;8.792;2024-02-23T09:41:23;8.40;99.90
7366;DHT22;3723;52.220;8.792;2024-02-23T09:43:50;8.30;99.90
7366;DHT22;3723;52.220;8.792;2024-02-23T09:46:18;8.20;99.90
7366;DHT22;3723;52.220;8.792;2024-02-23T09:49:11;8.20;99.90
7366;DHT22;3723;52.220;8.792;2024-02-23T09:51:40;8.10;99.90
7366;DHT22;3723;52.220;8.792;2024-02-23T09:54:07;8.10;99.90
7366;DHT22;3723;52.220;8.792;2024-02-23T09:56:34;8.10;99.90
7366;DHT22;3723;52.220;8.792;2024-02-23T09:59:18;8.10;99.90
7366;DHT22;3723;52.220;8.792;2024-02-23T10:01:47;8.10;99.90
7366;DHT22;3723;52.220;8.792;2024-02-23T10:04:19;8.00;99.90
7366;DHT22;3723;52.220;8.792;2024-02-23T10:06:47;8.10;99.90
7366;DHT22;3723;52.220;8.792;2024-02-23T10:09:26;8.10;99.90
7366;DHT22;3723;52.220;8.792;2024-02-23T10:11:53;8.10;99.90
7366;DHT22;3723;52.220;8.792;2024-02-23T10:14:20;8.10;99.90
7366;DHT22;3723;52.220;8.792;2024-02-23T10:16:47;8.20;99.90
7366;DHT22;3723;52.220;8.792;2024-02-23T10:19:18;8.20;99.90
7366;DHT22;3723;52.220;8.792;2024-02-23T10:21:46;8.40;99.90
7366;DHT22;3723;52.220;8.792;2024-02-23T10:24:15;8.50;99.90
7366;DHT22;3723;52.220;8.792;2024-02-23T10:26:42;8.60;99.90
7366;DHT22;3723;52.220;8.792;2024-02-23T10:29:10;8.80;99.90
7366;DHT22;3723;52.220;8.792;2024-02-23T10:31:37;8.90;99.90
7366;DHT22;3723;52.220;8.792;2024-02-23T10:34:08;9.00;99.90
7366;DHT22;3723;52.220;8.792;2024-02-23T10:36:40;9.00;99.90
7366;DHT22;3723;52.220;8.792;2024-02-23T10:39:09;8.90;99.90
7366;DHT22;3723;52.220;8.792;2024-02-23T10:41:36;8.90;99.90
7366;DHT22;3723;52.220;8.792;2024-02-23T10:44:05;9.00;99.90
7366;DHT22;3723;52.220;8.792;2024-02-23T10:46:32;8.90;99.90
7366;DHT22;3723;52.220;8.792;2024-02-23T10:48:59;8.90;99.90
7366;DHT22;3723;52.220;8.792;2024-02-23T10:51:28;8.90;99.90
7366;DHT22;3723;52.220;8.792;2024-02-23T10:53:55;8.90;99.90
7366;DHT22;3723;52.220;8.792;2024-02-23T10:56:25;9.00;99.90
7366;DHT22;3723;52.220;8.792;2024-02-23T10:58:52;9.10;99.90
7366;DHT22;3723;52.220;8.792;2024-02-23T11:01:20;9.00;99.90
7366;DHT22;3723;52.220;8.792;2024-02-23T11:03:49;8.90;99.90
7366;DHT22;3723;52.220;8.792;2024-02-23T11:06:16;8.90;99.90
7366;DHT22;3723;52.220;8.792;2024-02-23T11:08:46;9.00;99.90
7366;DHT22;3723;52.220;8.792;2024-02-23T11:11:15;8.90;99.90
7366;DHT22;3723;52.220;8.792;2024-02-23T11:13:45;8.90;99.90
7366;DHT22;3723;52.220;8.792;2024-02-23T11:16:21;8.90;99.90
7366;DHT22;3723;52.220;8.792;2024-02-23T11:18:48;9.00;99.90
7366;DHT22;3723;52.220;8.792;2024-02-23T11:21:15;9.10;99.90
7366;DHT22;3723;52.220;8.792;2024-02-23T11:23:43;9.20;99.90
7366;DHT22;3723;52.220;8.792;2024-02-23T11:26:10;9.30;99.90
7366;DHT22;3723;52.220;8.792;2024-02-23T11:28:47;9.50;99.90
7366;DHT22;3723;52.220;8.792;2024-02-23T11:31:15;9.80;99.90
7366;DHT22;3723;52.220;8.792;2024-02-23T11:33:48;10.30;99.90
7366;DHT22;3723;52.220;8.792;2024-02-23T11:36:22;11.00;99.90
7366;DHT22;3723;52.220;8.792;2024-02-23T11:38:52;11.90;99.90
7366;DHT22;3723;52.220;8.792;2024-02-23T11:41:20;12.50;99.90
7366;DHT22;3723;52.220;8.792;2024-02-23T11:43:49;13.10;99.90
7366;DHT22;3723;52.220;8.792;2024-02-23T11:46:16;13.10;99.90
7366;DHT22;3723;52.220;8.792;2024-02-23T11:48:43;13.10;99.90
7366;DHT22;3723;52.220;8.792;2024-02-23T11:51:10;12.70;99.90
7366;DHT22;3723;52.220;8.792;2024-02-23T11:53:37;12.30;99.90
7366;DHT22;3723;52.220;8.792;2024-02-23T11:56:05;11.90;99.90
7366;DHT22;3723;52.220;8.792;2024-02-23T11:58:32;11.30;99.90
7366;DHT22;3723;52.220;8.792;2024-02-23T12:01:00;11.00;99.90
7366;DHT22;3723;52.220;8.792;2024-02-23T12:03:28;10.70;99.90
7366;DHT22;3723;52.220;8.792;2024-02-23T12:05:56;10.50;99.90
7366;DHT22;3723;52.220;8.792;2024-02-23T12:08:23;10.40;99.90
7366;DHT22;3723;52.220;8.792;2024-02-23T12:10:51;10.30;99.90
7366;DHT22;3723;52.220;8.792;2024-02-23T12:13:18;10.10;99.90
7366;DHT22;3723;52.220;8.792;2024-02-23T12:15:47;10.00;99.90
7366;DHT22;3723;52.220;8.792;2024-02-23T12:18:15;9.90;99.90
7366;DHT22;3723;52.220;8.792;2024-02-23T12:20:42;9.80;99.90
7366;DHT22;3723;52.220;8.792;2024-02-23T12:23:08;9.90;99.90
7366;DHT22;3723;52.220;8.792;2024-02-23T12:25:36;9.80;99.90
7366;DHT22;3723;52.220;8.792;2024-02-23T12:28:03;9.70;99.90
7366;DHT22;3723;52.220;8.792;2024-02-23T12:30:30;9.60;99.90
7366;DHT22;3723;52.220;8.792;2024-02-23T12:33:03;9.60;99.90
7366;DHT22;3723;52.220;8.792;2024-02-23T12:35:32;10.00;99.90
7366;DHT22;3723;52.220;8.792;2024-02-23T12:38:00;10.60;99.90
7366;DHT22;3723;52.220;8.792;2024-02-23T12:40:27;10.80;99.90
7366;DHT22;3723;52.220;8.792;2024-02-23T12:42:54;11.50;99.90
7366;DHT22;3723;52.220;8.792;2024-02-23T12:45:21;11.80;99.90
7366;DHT22;3723;52.220;8.792;2024-02-23T12:48:03;11.70;99.90
7366;DHT22;3723;52.220;8.792;2024-02-23T12:50:50;11.60;99.90
7366;DHT22;3723;52.220;8.792;2024-02-23T12:53:35;11.90;99.90
7366;DHT22;3723;52.220;8.792;2024-02-23T12:59:03;12.70;99.90
7366;DHT22;3723;52.220;8.792;2024-02-23T13:01:30;13.30;99.90
7366;DHT22;3723;52.220;8.792;2024-02-23T13:03:59;13.20;99.90
7366;DHT22;3723;52.220;8.792;2024-02-23T13:06:28;12.70;99.90
7366;DHT22;3723;52.220;8.792;2024-02-23T13:08:55;12.30;99.90
7366;DHT22;3723;52.220;8.792;2024-02-23T13:11:21;11.80;99.90
7366;DHT22;3723;52.220;8.792;2024-02-23T13:13:48;11.50;99.90
7366;DHT22;3723;52.220;8.792;2024-02-23T13:16:15;11.70;99.90
7366;DHT22;3723;52.220;8.792;2024-02-23T13:18:42;12.50;99.90
7366;DHT22;3723;52.220;8.792;2024-02-23T13:21:09;13.30;99.90
7366;DHT22;3723;52.220;8.792;2024-02-23T13:23:37;13.90;99.90
7366;DHT22;3723;52.220;8.792;2024-02-23T13:26:05;13.70;99.90
7366;DHT22;3723;52.220;8.792;2024-02-23T13:28:31;13.90;99.90
7366;DHT22;3723;52.220;8.792;2024-02-23T13:30:58;14.00;99.90
7366;DHT22;3723;52.220;8.792;2024-02-23T13:33:25;14.00;99.90
7366;DHT22;3723;52.220;8.792;2024-02-23T13:35:52;13.90;99.90
7366;DHT22;3723;52.220;8.792;2024-02-23T13:38:19;13.60;99.90
7366;DHT22;3723;52.220;8.792;2024-02-23T13:40:47;12.90;99.90
7366;DHT22;3723;52.220;8.792;2024-02-23T13:43:13;12.30;99.90
7366;DHT22;3723;52.220;8.792;2024-02-23T13:45:48;11.80;99.90
7366;DHT22;3723;52.220;8.792;2024-02-23T13:48:16;11.60;99.90
7366;DHT22;3723;52.220;8.792;2024-02-23T13:50:44;11.60;99.90
7366;DHT22;3723;52.220;8.792;2024-02-23T13:53:11;11.80;99.90
7366;DHT22;3723;52.220;8.792;2024-02-23T13:55:38;12.50;99.90
7366;DHT22;3723;52.220;8.792;2024-02-23T13:58:06;13.30;99.90
7366;DHT22;3723;52.220;8.792;2024-02-23T14:00:33;13.30;99.90
7366;DHT22;3723;52.220;8.792;2024-02-23T14:03:00;13.00;99.90
7366;DHT22;3723;52.220;8.792;2024-02-23T14:05:27;12.50;99.90
7366;DHT22;3723;52.220;8.792;2024-02-23T14:07:54;12.10;99.90
7366;DHT22;3723;52.220;8.792;2024-02-23T14:10:21;11.80;99.90
7366;DHT22;3723;52.220;8.792;2024-02-23T14:12:48;11.50;99.90
7366;DHT22;3723;52.220;8.792;2024-02-23T14:15:17;11.00;99.90
7366;DHT22;3723;52.220;8.792;2024-02-23T14:17:44;10.60;99.90
7366;DHT22;3723;52.220;8.792;2024-02-23T14:20:11;10.30;99.90
7366;DHT22;3723;52.220;8.792;2024-02-23T14:39:21;8.30;99.90
7366;DHT22;3723;52.220;8.792;2024-02-23T14:41:48;7.80;99.90
7366;DHT22;3723;52.220;8.792;2024-02-23T14:44:41;7.50;99.90
7366;DHT22;3723;52.220;8.792;2024-02-23T14:47:17;7.30;99.90
7366;DHT22;3723;52.220;8.792;2024-02-23T14:49:54;7.20;99.90
7366;DHT22;3723;52.220;8.792;2024-02-23T14:52:46;7.00;99.90
7366;DHT22;3723;52.220;8.792;2024-02-23T14:55:21;6.90;99.90
7366;DHT22;3723;52.220;8.792;2024-02-23T15:04:35;6.70;99.90
7366;DHT22;3723;52.220;8.792;2024-02-23T15:07:02;6.80;99.90
7366;DHT22;3723;52.220;8.792;2024-02-23T15:13:27;6.90;99.90
7366;DHT22;3723;52.220;8.792;2024-02-23T15:23:05;7.20;99.90
7366;DHT22;3723;52.220;8.792;2024-02-23T15:25:32;7.40;99.90
7366;DHT22;3723;52.220;8.792;2024-02-23T15:32:55;7.80;99.90
7366;DHT22;3723;52.220;8.792;2024-02-23T15:36:04;7.90;99.90
7366;DHT22;3723;52.220;8.792;2024-02-23T15:38:33;8.00;99.90
7366;DHT22;3723;52.220;8.792;2024-02-23T15:41:01;8.10;99.90
7366;DHT22;3723;52.220;8.792;2024-02-23T15:43:28;8.10;99.90
7366;DHT22;3723;52.220;8.792;2024-02-23T15:45:55;8.10;99.90
7366;DHT22;3723;52.220;8.792;2024-02-23T15:48:23;8.20;99.90
7366;DHT22;3723;52.220;8.792;2024-02-23T15:50:50;8.30;99.90
7366;DHT22;3723;52.220;8.792;2024-02-23T15:53:17;8.30;99.90
7366;DHT22;3723;52.220;8.792;2024-02-23T15:55:44;8.30;99.90
7366;DHT22;3723;52.220;8.792;2024-02-23T15:58:12;8.20;99.90
7366;DHT22;3723;52.220;8.792;2024-02-23T16:00:41;8.20;99.90
7366;DHT22;3723;52.220;8.792;2024-02-23T16:03:10;8.20;99.90
7366;DHT22;3723;52.220;8.792;2024-02-23T16:05:38;8.20;99.90
7366;DHT22;3723;52.220;8.792;2024-02-23T16:08:06;8.20;99.90
7366;DHT22;3723;52.220;8.792;2024-02-23T16:10:39;8.20;99.90
7366;DHT22;3723;52.220;8.792;2024-02-23T16:13:06;8.20;99.90
7366;DHT22;3723;52.220;8.792;2024-02-23T16:15:33;8.30;99.90
7366;DHT22;3723;52.220;8.792;2024-02-23T16:18:00;8.20;99.90
7366;DHT22;3723;52.220;8.792;2024-02-23T16:20:32;8.20;99.90
7366;DHT22;3723;52.220;8.792;2024-02-23T16:23:01;8.20;99.90
7366;DHT22;3723;52.220;8.792;2024-02-23T16:25:35;8.10;99.90
7366;DHT22;3723;52.220;8.792;2024-02-23T16:28:03;8.10;99.90
7366;DHT22;3723;52.220;8.792;2024-02-23T16:30:30;8.00;99.90
7366;DHT22;3723;52.220;8.792;2024-02-23T16:32:58;7.90;99.90
7366;DHT22;3723;52.220;8.792;2024-02-23T16:35:24;7.80;99.90
7366;DHT22;3723;52.220;8.792;2024-02-23T16:37:51;7.80;99.90
7366;DHT22;3723;52.220;8.792;2024-02-23T16:40:24;7.70;99.90
7366;DHT22;3723;52.220;8.792;2024-02-23T16:42:54;7.70;99.90
7366;DHT22;3723;52.220;8.792;2024-02-23T16:45:21;7.60;99.90
7366;DHT22;3723;52.220;8.792;2024-02-23T16:47:48;7.50;99.90
7366;DHT22;3723;52.220;8.792;2024-02-23T16:50:15;7.50;99.90
7366;DHT22;3723;52.220;8.792;2024-02-23T16:52:42;7.50;99.90
7366;DHT22;3723;52.220;8.792;2024-02-23T16:55:09;7.50;99.90
7366;DHT22;3723;52.220;8.792;2024-02-23T16:57:38;7.60;99.90
7366;DHT22;3723;52.220;8.792;2024-02-23T17:00:06;7.60;99.90
7366;DHT22;3723;52.220;8.792;2024-02-23T17:02:34;7.60;99.90
7366;DHT22;3723;52.220;8.792;2024-02-23T17:05:01;7.60;99.90